27. September 2022

Uhrzeit Code Wetter Temp. Sichtweite Wolkendecke Wind METAR/SPECI
05:00
M
28 °C 10 km+ 2.000 ft 110° 110° 14 kt METAR YHID 261900Z AUTO 11014KT 9999 // SCT016 BKN020 BKN025 28/24 Q1008
04:30
M
28 °C 10 km+ 1.600 ft 110° 110° 15 kt METAR YHID 261830Z AUTO 11015KT 9999 // BKN016 BKN023 BKN031 28/24 Q1008
04:00
M
28 °C 10 km+ 1.600 ft 110° 110° 13 kt METAR YHID 261800Z AUTO 11013KT 9999 // BKN016 28/24 Q1008 RF00.0/000.0
03:30
M
28 °C 10 km+ 1.600 ft 110° 110° 14 kt METAR YHID 261730Z AUTO 11014KT 9999 // BKN016 28/24 Q1007 RF00.0/000.0
03:00
V
28 °C 10 km+ - 110° 110° 13 kt METAR YHID 261700Z AUTO 11013KT 9999 // SCT016 28/24 Q1007 RF00.0/000.0
02:30
V
28 °C 10 km+ 5.800 ft 110° 110° 16 kt METAR YHID 261630Z AUTO 11016KT 9999 // SCT016 SCT020 BKN058 28/24 Q1008
02:00
V
28 °C 10 km+ 4.500 ft 110° 110° 16 kt METAR YHID 261600Z AUTO 11016KT 9999 // SCT018 SCT026 BKN045 28/24 Q1008
01:30
V
28 °C 10 km+ 3.300 ft 120° 120° 13 kt METAR YHID 261530Z AUTO 12013KT 9999 // SCT018 BKN033 BKN037 28/24 Q1008
01:00
V
28 °C 10 km+ 3.700 ft 120° 120° 13 kt METAR YHID 261500Z AUTO 12013KT 9999 // SCT018 SCT031 BKN037 28/24 Q1009
00:30
V
28 °C 10 km+ 5.100 ft 120° 120° 14 kt METAR YHID 261430Z AUTO 12014KT 9999 // SCT018 BKN051 28/24 Q1009
00:00
V
28 °C 10 km+ 4.500 ft 110° 110° 13 kt METAR YHID 261400Z AUTO 11013KT 9999 // SCT019 BKN045 OVC053 28/24 Q1009

26. September 2022

Uhrzeit Code Wetter Temp. Sichtweite Wolkendecke Wind METAR/SPECI
23:30
M
28 °C 10 km+ 2.600 ft 120° 120° 14 kt METAR YHID 261330Z AUTO 12014KT 9999 // SCT017 SCT021 BKN026 28/24 Q1009
23:00
M
28 °C 10 km+ 1.700 ft 120° 120° 12 kt METAR YHID 261300Z AUTO 12012KT 9999 // BKN017 BKN021 BKN041 28/24 Q1009
22:30
V
28 °C 10 km+ - 110° 110° 13 kt METAR YHID 261230Z AUTO 11013KT 9999 // SCT017 28/24 Q1009 RF00.0/000.0
22:00
V
28 °C 10 km+ - 110° 110° 12 kt METAR YHID 261200Z AUTO 11012KT 9999 // NCD 28/24 Q1009 RF00.0/000.0
21:30
V
28 °C 10 km+ - 110° 110° 13 kt METAR YHID 261130Z AUTO 11013KT 9999 // NCD 28/24 Q1009 RF00.0/000.0
21:00
V
28 °C 10 km+ - 120° 120° 12 kt METAR YHID 261100Z AUTO 12012KT 9999 // SCT016 28/24 Q1009 RF00.0/000.0
20:30
M
28 °C 10 km+ 1.800 ft 120° 120° 12 kt METAR YHID 261030Z AUTO 12012KT 9999 // BKN018 BKN052 28/24 Q1008
20:00
M
28 °C 10 km+ 2.900 ft 120° 120° 13 kt METAR YHID 261000Z AUTO 12013KT 9999 // SCT018 BKN029 BKN035 28/24 Q1008
19:30
M
28 °C 10 km+ 2.000 ft 120° 120° 13 kt METAR YHID 260930Z AUTO 12013KT 9999 // BKN020 BKN025 OVC029 28/24 Q1008
19:00
V
28 °C 10 km+ - 110° 110° 12 kt METAR YHID 260900Z AUTO 11012KT 9999 // SCT018 SCT024 28/24 Q1008
18:30
V
28 °C 10 km+ - 110° 110° 13 kt METAR YHID 260830Z AUTO 11013KT 9999 // SCT023 28/24 Q1007 RF00.0/000.0
18:00
V
29 °C 10 km+ - 120° 120° 14 kt METAR YHID 260800Z AUTO 12014KT 9999 // NCD 29/24 Q1007 RF00.0/000.0
17:30
V
29 °C 10 km+ - 120° 120° 15 kt METAR YHID 260730Z AUTO 12015KT 9999 // SCT022 29/24 Q1006 RF00.0/000.0
17:00
M
30 °C 10 km+ 2.200 ft 110° 110° 14 kt METAR YHID 260700Z AUTO 11014KT 9999 // BKN022 BKN028 OVC035 30/24 Q1006
16:30
V
30 °C 10 km+ - 100° 100° 18 kt METAR YHID 260630Z AUTO 10018KT 9999 // SCT022 30/24 Q1006 RF00.0/000.0
16:00
V
31 °C 10 km+ - 110° 110° 18 kt METAR YHID 260600Z AUTO 11018KT 9999 // SCT022 31/24 Q1006 RF00.0/000.0
15:30
V
32 °C 10 km+ - 110° 110° 18 kt METAR YHID 260530Z AUTO 11018KT 9999 // SCT022 SCT028 32/24 Q1006
15:00
V
31 °C 10 km+ - 110° 110° 19 kt METAR YHID 260500Z AUTO 11019KT 9999 // SCT020 31/24 Q1007 RF00.0/000.0
14:30
V
31 °C 10 km+ - 100° 100° 19 kt METAR YHID 260430Z AUTO 10019KT 9999 // NCD 31/24 Q1007 RF00.0/000.0
14:00
V
31 °C 10 km+ - 100° 100° 20 kt METAR YHID 260400Z AUTO 10020KT 9999 // NCD 31/24 Q1007 RF00.0/000.0
13:30
V
32 °C 10 km+ - 100° 100° 19 kt METAR YHID 260330Z AUTO 10019KT 9999 // NCD 32/24 Q1008 RF00.0/000.0
13:00
V
31 °C 10 km+ - 100° 100° 19 kt METAR YHID 260300Z AUTO 10019KT 9999 // NCD 31/24 Q1008 RF00.0/000.0
12:30
V
31 °C 10 km+ - 100° 100° 18 kt METAR YHID 260230Z AUTO 10018KT 9999 // SCT020 31/24 Q1009 RF00.0/000.0
12:00
V
32 °C 10 km+ - 100° 100° 18 kt METAR YHID 260200Z AUTO 10018KT 9999 // NCD 32/25 Q1009 RF00.0/000.0
11:30
V
31 °C 10 km+ - 110° 110° 18 kt METAR YHID 260130Z AUTO 11018KT 9999 // SCT017 SCT037 31/23 Q1010
11:00
V
31 °C 10 km+ - 100° 100° 20 kt METAR YHID 260100Z AUTO 10020KT 9999 // SCT016 31/24 Q1010 RF00.0/000.0
10:30
V
32 °C 10 km+ - 110° 110° 17 kt METAR YHID 260030Z AUTO 11017KT 9999 // SCT016 SCT024 32/25 Q1010
10:00
M
31 °C 10 km+ 2.200 ft 110° 110° 16 kt METAR YHID 260000Z AUTO 11016KT 9999 // SCT019 BKN022 31/24 Q1010
09:30
V
31 °C 10 km+ - 100° 100° 15 kt METAR YHID 252330Z AUTO 10015KT 9999 // SCT016 SCT022 31/25 Q1010
09:00
M
30 °C 10 km+ 1.600 ft 110° 110° 14 kt METAR YHID 252300Z AUTO 11014KT 9999 // BKN016 30/24 Q1010 RF00.0/000.0
08:30
V
29 °C 10 km+ 5.900 ft 120° 120° 16 kt METAR YHID 252230Z AUTO 12016KT 9999 // SCT016 SCT019 BKN059 29/24 Q1010
08:00
M
29 °C 10 km+ 1.800 ft 110° 110° 14 kt METAR YHID 252200Z AUTO 11014KT 9999 // BKN018 BKN058 29/24 Q1010
07:30
M
28 °C 10 km+ 1.600 ft 110° 110° 14 kt METAR YHID 252130Z AUTO 11014KT 9999 // BKN016 BKN061 28/24 Q1009
07:00
M
28 °C 10 km+ 1.600 ft 110° 110° 13 kt METAR YHID 252100Z AUTO 11013KT 9999 // BKN016 BKN025 BKN059 28/25 Q1009
06:30
M
28 °C 10 km+ 2.200 ft 110° 110° 13 kt METAR YHID 252030Z AUTO 11013KT 9999 // SCT018 BKN022 BKN029 28/24 Q1009
06:00
V
28 °C 10 km+ 5.700 ft 120° 120° 14 kt METAR YHID 252000Z AUTO 12014KT 9999 // SCT018 SCT023 OVC057 28/24 Q1008
05:30
V
28 °C 10 km+ 3.000 ft 120° 120° 11 kt METAR YHID 251930Z AUTO 12011KT 9999 // SCT018 BKN030 BKN061 28/24 Q1008
05:00
V
28 °C 10 km+ 6.100 ft 110° 110° 12 kt METAR YHID 251900Z AUTO 11012KT 9999 // SCT016 SCT024 BKN061 28/24 Q1008
04:30
M
28 °C 10 km+ 2.200 ft 120° 120° 13 kt METAR YHID 251830Z AUTO 12013KT 9999 // SCT017 BKN022 BKN029 28/24 Q1008
04:00
M
28 °C 10 km+ 2.200 ft 120° 120° 12 kt METAR YHID 251800Z AUTO 12012KT 9999 // SCT017 BKN022 BKN028 28/24 Q1008
03:30
M
28 °C 10 km+ 1.700 ft 120° 120° 12 kt METAR YHID 251730Z AUTO 12012KT 9999 // BKN017 BKN022 OVC052 28/24 Q1008
03:00
V
28 °C 10 km+ 5.300 ft 120° 120° 13 kt METAR YHID 251700Z AUTO 12013KT 9999 // SCT017 BKN053 28/24 Q1008
02:30
V
28 °C 10 km+ 5.300 ft 120° 120° 12 kt METAR YHID 251630Z AUTO 12012KT 9999 // SCT016 SCT027 OVC053 28/24 Q1008
02:00
V
27 °C 10 km+ - 120° 120° 14 kt METAR YHID 251600Z AUTO 12014KT 9999 // SCT035 SCT050 SCT059 27/24 Q1008
01:30
V
28 °C 10 km+ 5.000 ft 120° 120° 12 kt METAR YHID 251530Z AUTO 12012KT 9999 // SCT027 BKN050 28/24 Q1009
01:00
V
28 °C 10 km+ 4.600 ft 120° 120° 13 kt METAR YHID 251500Z AUTO 12013KT 9999 // SCT017 OVC046 28/24 Q1009
00:30
M
28 °C 10 km+ 1.700 ft 120° 120° 12 kt METAR YHID 251430Z AUTO 12012KT 9999 // BKN017 BKN021 OVC046 28/24 Q1010
00:00
M
28 °C 10 km+ 2.100 ft 120° 120° 12 kt METAR YHID 251400Z AUTO 12012KT 9999 // OVC021 OVC043 28/24 Q1009

25. September 2022

Uhrzeit Code Wetter Temp. Sichtweite Wolkendecke Wind METAR/SPECI
23:30
V
28 °C 10 km+ 4.200 ft 120° 120° 12 kt METAR YHID 251330Z AUTO 12012KT 9999 // SCT021 BKN042 28/24 Q1010
23:00
V
28 °C 10 km+ - 120° 120° 13 kt METAR YHID 251300Z AUTO 12013KT 9999 // SCT021 SCT042 28/24 Q1010
22:30
V
28 °C 10 km+ - 120° 120° 13 kt METAR YHID 251230Z AUTO 12013KT 9999 // SCT019 SCT042 28/24 Q1010
22:00
V
28 °C 10 km+ 4.400 ft 130° 130° 11 kt METAR YHID 251200Z AUTO 13011KT 9999 // SCT017 BKN044 28/24 Q1010
21:30
M
28 °C 10 km+ 1.900 ft 120° 120° 11 kt METAR YHID 251130Z AUTO 12011KT 9999 // SCT016 BKN019 BKN025 28/24 Q1010
21:00
V
28 °C 10 km+ 4.400 ft 130° 130° 13 kt METAR YHID 251100Z AUTO 13013KT 9999 // OVC044 28/24 Q1009 RF00.0/000.0
20:30
V
28 °C 10 km+ 4.200 ft 120° 120° 13 kt METAR YHID 251030Z AUTO 12013KT 9999 // SCT017 OVC042 28/24 Q1009
20:00
V
28 °C 10 km+ 4.000 ft 120° 120° 13 kt METAR YHID 251000Z AUTO 12013KT 9999 // OVC040 28/24 Q1009 RF00.0/000.0
19:30
V
28 °C 10 km+ 4.000 ft 120° 120° 14 kt METAR YHID 250930Z AUTO 12014KT 9999 // SCT018 SCT027 BKN040 28/24 Q1008
19:00
V
28 °C 10 km+ - 120° 120° 15 kt METAR YHID 250900Z AUTO 12015KT 9999 // SCT028 SCT039 28/24 Q1008
18:30
V
28 °C 10 km+ - 110° 110° 17 kt METAR YHID 250830Z AUTO 11017KT 9999 // SCT019 SCT037 28/24 Q1008
18:00
V
28 °C 10 km+ 3.900 ft 120° 120° 14 kt METAR YHID 250800Z AUTO 12014KT 9999 // SCT019 BKN039 28/24 Q1007
17:30
V
29 °C 10 km+ 3.700 ft 110° 110° 16 kt METAR YHID 250730Z AUTO 11016KT 9999 // SCT023 SCT029 BKN037 29/24 Q1007
17:00
V
30 °C 10 km+ 3.500 ft 120° 120° 16 kt METAR YHID 250700Z AUTO 12016KT 9999 // SCT025 BKN035 30/23 Q1007
16:30
V
30 °C 10 km+ - 120° 120° 17 kt METAR YHID 250630Z AUTO 12017KT 9999 // SCT037 30/23 Q1007 RF00.0/000.0
16:00
V
31 °C 10 km+ 3.700 ft 120° 120° 18 kt METAR YHID 250600Z AUTO 12018KT 9999 // BKN037 31/24 Q1007 RF00.0/000.0
15:30
V
31 °C 10 km+ 3.500 ft 120° 120° 18 kt METAR YHID 250530Z AUTO 12018KT 9999 // SCT023 BKN035 31/24 Q1007
15:00
V
31 °C 10 km+ 3.300 ft 110° 110° 17 kt METAR YHID 250500Z AUTO 11017KT 9999 // SCT023 BKN033 31/23 Q1007
14:30
V
31 °C 10 km+ 3.300 ft 110° 110° 18 kt METAR YHID 250430Z AUTO 11018KT 9999 // SCT025 BKN033 31/23 Q1007
14:00
M
31 °C 10 km+ 2.500 ft 110° 110° 18 kt METAR YHID 250400Z AUTO 11018KT 9999 // BKN025 BKN031 31/23 Q1008
13:30
V
32 °C 10 km+ - 110° 110° 18 kt METAR YHID 250330Z AUTO 11018KT 9999 // SCT027 32/24 Q1008 RF00.0/000.0
13:00
V
31 °C 10 km+ - 100° 100° 21 kt METAR YHID 250300Z AUTO 10021KT 9999 // NCD 31/23 Q1008 RF00.0/000.0
12:30
V
31 °C 10 km+ 3.100 ft 110° 110° 19 kt METAR YHID 250230Z AUTO 11019KT 9999 // SCT026 BKN031 31/23 Q1009
12:00
V
31 °C 10 km+ 3.100 ft 110° 110° 17 kt METAR YHID 250200Z AUTO 11017KT 9999 // SCT024 BKN031 31/23 Q1010
11:30
M
30 °C 10 km+ 2.600 ft 110° 110° 15 kt METAR YHID 250130Z AUTO 11015KT 9999 // BKN026 30/23 Q1010 RF00.0/000.0
11:00
V
31 °C 10 km+ - 110° 110° 16 kt METAR YHID 250100Z AUTO 11016KT 9999 // SCT024 SCT032 31/24 Q1010
10:30
V
30 °C 10 km+ 3.000 ft 120° 120° 16 kt METAR YHID 250030Z AUTO 12016KT 9999 // SCT026 BKN030 30/23 Q1010
10:00
V
31 °C 10 km+ - 120° 120° 17 kt METAR YHID 250000Z AUTO 12017KT 9999 // SCT024 SCT028 SCT034 31/23 Q1010
09:30
M
30 °C 10 km+ 2.600 ft 120° 120° 13 kt METAR YHID 242330Z AUTO 12013KT 9999 // SCT020 BKN026 BKN030 30/24 Q1011
09:00
V
28 °C 10 km+ 3.500 ft 140° 140° 10 kt METAR YHID 242300Z AUTO 14010KT 9999 // SCT022 SCT026 OVC035 28/23 Q1011
08:30
V
28 °C 10 km+ 3.500 ft 130° 130° 11 kt METAR YHID 242230Z AUTO 13011KT 9999 // SCT021 SCT026 BKN035 28/23 Q1010
08:00
V
28 °C 10 km+ 11.500 ft 140° 140° 11 kt METAR YHID 242200Z AUTO 14011KT 9999 // SCT031 SCT037 OVC115 28/23 Q1010
07:30
V
28 °C 10 km+ 3.700 ft 150° 150° 9 kt METAR YHID 242130Z AUTO 15009KT 9999 // OVC037 28/23 Q1009 RF00.0/000.0
07:00
V
27 °C 10 km+ 3.700 ft 150° 150° 7 kt METAR YHID 242100Z AUTO 15007KT 9999 // BKN037 OVC115 27/23 Q1009
06:30
V
27 °C 10 km+ 3.700 ft 150° 150° 7 kt METAR YHID 242030Z AUTO 15007KT 9999 // BKN037 27/22 Q1009 RF00.0/000.0
06:00
V
26 °C 10 km+ 3.700 ft 140° 140° 7 kt METAR YHID 242000Z AUTO 14007KT 9999 // BKN037 BKN100 OVC125 26/23 Q1009
05:30
V
26 °C 10 km+ 12.500 ft 150° 150° 8 kt METAR YHID 241930Z AUTO 15008KT 9999 // OVC125 26/23 Q1008 RF00.0/000.0
05:00
V
26 °C 10 km+ 12.500 ft 150° 150° 7 kt METAR YHID 241900Z AUTO 15007KT 9999 // OVC125 26/23 Q1008 RF00.0/000.0
04:30
V
26 °C 10 km+ 12.500 ft 140° 140° 6 kt METAR YHID 241830Z AUTO 14006KT 9999 // OVC125 26/23 Q1008 RF00.0/000.0
04:00
V
26 °C 10 km+ - 140° 140° 7 kt METAR YHID 241800Z AUTO 14007KT 9999 // SCT039 26/22 Q1008 RF00.0/000.0
03:30
V
26 °C 10 km+ - 140° 140° 7 kt METAR YHID 241730Z AUTO 14007KT 9999 // SCT039 26/22 Q1008 RF00.0/000.0
03:00
V
26 °C 10 km+ - 140° 140° 9 kt METAR YHID 241700Z AUTO 14009KT 9999 // NCD 26/22 Q1008 RF00.0/000.0
02:30
V
26 °C 10 km+ - 150° 150° 7 kt METAR YHID 241630Z AUTO 15007KT 9999 // NCD 26/23 Q1008 RF00.0/000.0
02:00
V
26 °C 10 km+ - 140° 140° 8 kt METAR YHID 241600Z AUTO 14008KT 9999 // SCT080 26/23 Q1009 RF00.0/000.0
01:30
V
26 °C 10 km+ - 140° 140° 7 kt METAR YHID 241530Z AUTO 14007KT 9999 // NCD 26/23 Q1009 RF00.0/000.0
01:00
V
26 °C 10 km+ - 160° 160° 7 kt METAR YHID 241500Z AUTO 16007KT 9999 // NCD 26/23 Q1009 RF00.0/000.0
Ältere Daten

Wir und Dritte verfolgen dein Internetverhalten auf unserer Website mit Cookies. Wenn du fortfährst, gehen wir davon aus, dass du mit unserer Cookie-Richtlinie einverstanden bist. Mehr erfahren